sensor_id;sensor_type;location;lat;lon;timestamp;P1;durP1;ratioP1;P2;durP2;ratioP2
52542;SDS011;38449;52.696;6.186;2023-04-25T00:00:17;12.75;;;4.47;;
52542;SDS011;38449;52.696;6.186;2023-04-25T00:02:43;16.60;;;4.85;;
52542;SDS011;38449;52.696;6.186;2023-04-25T00:05:10;13.90;;;5.40;;
52542;SDS011;38449;52.696;6.186;2023-04-25T00:07:36;14.35;;;3.35;;
52542;SDS011;38449;52.696;6.186;2023-04-25T00:10:03;16.85;;;3.88;;
52542;SDS011;38449;52.696;6.186;2023-04-25T00:12:29;12.48;;;3.80;;
52542;SDS011;38449;52.696;6.186;2023-04-25T00:14:56;14.00;;;4.10;;
52542;SDS011;38449;52.696;6.186;2023-04-25T00:17:25;20.63;;;4.88;;
52542;SDS011;38449;52.696;6.186;2023-04-25T00:19:52;12.75;;;4.20;;
52542;SDS011;38449;52.696;6.186;2023-04-25T00:22:18;13.25;;;4.18;;
52542;SDS011;38449;52.696;6.186;2023-04-25T00:24:45;13.43;;;3.78;;
52542;SDS011;38449;52.696;6.186;2023-04-25T00:27:11;11.38;;;3.92;;
52542;SDS011;38449;52.696;6.186;2023-04-25T00:29:37;15.85;;;3.70;;
52542;SDS011;38449;52.696;6.186;2023-04-25T00:32:03;10.18;;;3.42;;
52542;SDS011;38449;52.696;6.186;2023-04-25T00:34:30;11.93;;;4.15;;
52542;SDS011;38449;52.696;6.186;2023-04-25T00:36:56;12.10;;;4.18;;
52542;SDS011;38449;52.696;6.186;2023-04-25T00:39:22;13.20;;;3.60;;
52542;SDS011;38449;52.696;6.186;2023-04-25T00:41:48;11.57;;;3.60;;
52542;SDS011;38449;52.696;6.186;2023-04-25T00:44:18;12.02;;;3.72;;
52542;SDS011;38449;52.696;6.186;2023-04-25T00:46:47;14.05;;;3.65;;
52542;SDS011;38449;52.696;6.186;2023-04-25T00:49:14;8.57;;;3.60;;
52542;SDS011;38449;52.696;6.186;2023-04-25T00:51:42;13.18;;;3.80;;
52542;SDS011;38449;52.696;6.186;2023-04-25T00:54:13;13.20;;;3.85;;
52542;SDS011;38449;52.696;6.186;2023-04-25T00:56:41;10.77;;;3.22;;
52542;SDS011;38449;52.696;6.186;2023-04-25T00:59:08;12.23;;;3.60;;
52542;SDS011;38449;52.696;6.186;2023-04-25T01:01:35;13.25;;;3.63;;
52542;SDS011;38449;52.696;6.186;2023-04-25T01:04:03;12.98;;;3.45;;
52542;SDS011;38449;52.696;6.186;2023-04-25T01:06:29;9.68;;;3.60;;
52542;SDS011;38449;52.696;6.186;2023-04-25T01:08:57;13.30;;;3.42;;
52542;SDS011;38449;52.696;6.186;2023-04-25T01:11:24;11.75;;;3.63;;
52542;SDS011;38449;52.696;6.186;2023-04-25T01:13:50;12.75;;;3.60;;
52542;SDS011;38449;52.696;6.186;2023-04-25T01:16:17;17.30;;;4.45;;
52542;SDS011;38449;52.696;6.186;2023-04-25T01:18:43;16.60;;;4.45;;
52542;SDS011;38449;52.696;6.186;2023-04-25T01:21:11;10.85;;;3.65;;
52542;SDS011;38449;52.696;6.186;2023-04-25T01:23:39;12.77;;;3.88;;
52542;SDS011;38449;52.696;6.186;2023-04-25T01:26:06;12.73;;;3.97;;
52542;SDS011;38449;52.696;6.186;2023-04-25T01:28:36;10.50;;;3.92;;
52542;SDS011;38449;52.696;6.186;2023-04-25T01:31:03;10.68;;;4.55;;
52542;SDS011;38449;52.696;6.186;2023-04-25T01:33:31;10.80;;;4.03;;
52542;SDS011;38449;52.696;6.186;2023-04-25T01:35:57;11.10;;;4.35;;
52542;SDS011;38449;52.696;6.186;2023-04-25T01:38:24;16.20;;;4.18;;
52542;SDS011;38449;52.696;6.186;2023-04-25T01:40:50;11.85;;;4.03;;
52542;SDS011;38449;52.696;6.186;2023-04-25T01:43:17;14.35;;;4.18;;
52542;SDS011;38449;52.696;6.186;2023-04-25T01:45:44;9.55;;;4.63;;
52542;SDS011;38449;52.696;6.186;2023-04-25T01:48:11;13.48;;;4.22;;
52542;SDS011;38449;52.696;6.186;2023-04-25T01:50:38;10.50;;;3.58;;
52542;SDS011;38449;52.696;6.186;2023-04-25T01:53:05;10.65;;;3.30;;
52542;SDS011;38449;52.696;6.186;2023-04-25T01:55:32;10.07;;;3.63;;
52542;SDS011;38449;52.696;6.186;2023-04-25T01:57:58;8.98;;;3.50;;
52542;SDS011;38449;52.696;6.186;2023-04-25T02:00:26;14.40;;;3.33;;
52542;SDS011;38449;52.696;6.186;2023-04-25T02:02:52;15.07;;;4.97;;
52542;SDS011;38449;52.696;6.186;2023-04-25T02:05:19;13.45;;;3.97;;
52542;SDS011;38449;52.696;6.186;2023-04-25T02:07:46;11.45;;;3.97;;
52542;SDS011;38449;52.696;6.186;2023-04-25T02:10:13;15.00;;;4.75;;
52542;SDS011;38449;52.696;6.186;2023-04-25T02:12:39;11.80;;;3.13;;
52542;SDS011;38449;52.696;6.186;2023-04-25T02:15:06;14.63;;;4.57;;
52542;SDS011;38449;52.696;6.186;2023-04-25T02:17:32;12.88;;;3.65;;
52542;SDS011;38449;52.696;6.186;2023-04-25T02:19:59;9.90;;;3.53;;
52542;SDS011;38449;52.696;6.186;2023-04-25T02:22:25;11.68;;;3.92;;
52542;SDS011;38449;52.696;6.186;2023-04-25T02:24:53;11.50;;;4.00;;
52542;SDS011;38449;52.696;6.186;2023-04-25T02:27:20;9.98;;;3.85;;
52542;SDS011;38449;52.696;6.186;2023-04-25T02:29:47;8.88;;;3.30;;
52542;SDS011;38449;52.696;6.186;2023-04-25T02:32:13;11.40;;;2.83;;
52542;SDS011;38449;52.696;6.186;2023-04-25T02:34:39;16.60;;;4.07;;
52542;SDS011;38449;52.696;6.186;2023-04-25T02:37:05;10.07;;;3.20;;
52542;SDS011;38449;52.696;6.186;2023-04-25T02:39:31;7.88;;;2.60;;
52542;SDS011;38449;52.696;6.186;2023-04-25T02:41:58;9.48;;;3.70;;
52542;SDS011;38449;52.696;6.186;2023-04-25T02:44:24;8.57;;;3.47;;
52542;SDS011;38449;52.696;6.186;2023-04-25T02:46:50;16.17;;;4.10;;
52542;SDS011;38449;52.696;6.186;2023-04-25T02:49:16;10.63;;;3.45;;
52542;SDS011;38449;52.696;6.186;2023-04-25T02:51:43;6.10;;;2.25;;
52542;SDS011;38449;52.696;6.186;2023-04-25T02:54:09;10.20;;;3.03;;
52542;SDS011;38449;52.696;6.186;2023-04-25T02:56:35;9.48;;;3.05;;
52542;SDS011;38449;52.696;6.186;2023-04-25T02:59:01;9.60;;;3.05;;
52542;SDS011;38449;52.696;6.186;2023-04-25T03:01:27;12.23;;;2.45;;
52542;SDS011;38449;52.696;6.186;2023-04-25T03:03:54;12.02;;;3.35;;
52542;SDS011;38449;52.696;6.186;2023-04-25T03:06:20;6.35;;;2.72;;
52542;SDS011;38449;52.696;6.186;2023-04-25T03:08:46;8.23;;;2.58;;
52542;SDS011;38449;52.696;6.186;2023-04-25T03:11:12;14.20;;;3.28;;
52542;SDS011;38449;52.696;6.186;2023-04-25T03:13:38;11.45;;;2.45;;
52542;SDS011;38449;52.696;6.186;2023-04-25T03:16:05;8.50;;;2.42;;
52542;SDS011;38449;52.696;6.186;2023-04-25T03:18:31;9.55;;;2.58;;
52542;SDS011;38449;52.696;6.186;2023-04-25T03:20:58;9.88;;;2.78;;
52542;SDS011;38449;52.696;6.186;2023-04-25T03:23:24;9.00;;;2.80;;
52542;SDS011;38449;52.696;6.186;2023-04-25T03:25:50;9.13;;;2.40;;
52542;SDS011;38449;52.696;6.186;2023-04-25T03:28:16;10.85;;;2.92;;
52542;SDS011;38449;52.696;6.186;2023-04-25T03:30:43;7.53;;;2.67;;
52542;SDS011;38449;52.696;6.186;2023-04-25T03:33:09;7.18;;;2.72;;
52542;SDS011;38449;52.696;6.186;2023-04-25T03:35:35;7.47;;;3.00;;
52542;SDS011;38449;52.696;6.186;2023-04-25T03:38:01;7.95;;;2.85;;
52542;SDS011;38449;52.696;6.186;2023-04-25T03:40:28;8.05;;;2.10;;
52542;SDS011;38449;52.696;6.186;2023-04-25T03:42:54;8.20;;;1.98;;
52542;SDS011;38449;52.696;6.186;2023-04-25T03:45:20;9.13;;;2.60;;
52542;SDS011;38449;52.696;6.186;2023-04-25T03:47:46;6.68;;;2.00;;
52542;SDS011;38449;52.696;6.186;2023-04-25T03:50:13;8.00;;;2.50;;
52542;SDS011;38449;52.696;6.186;2023-04-25T03:52:39;8.02;;;2.45;;
52542;SDS011;38449;52.696;6.186;2023-04-25T03:55:05;6.90;;;2.50;;
52542;SDS011;38449;52.696;6.186;2023-04-25T03:57:32;7.40;;;2.03;;
52542;SDS011;38449;52.696;6.186;2023-04-25T03:59:58;10.05;;;2.60;;
52542;SDS011;38449;52.696;6.186;2023-04-25T04:02:24;5.40;;;2.95;;
52542;SDS011;38449;52.696;6.186;2023-04-25T04:04:51;6.05;;;2.10;;
52542;SDS011;38449;52.696;6.186;2023-04-25T04:07:17;7.72;;;2.35;;
52542;SDS011;38449;52.696;6.186;2023-04-25T04:09:43;8.45;;;2.58;;
52542;SDS011;38449;52.696;6.186;2023-04-25T04:12:09;10.52;;;2.08;;
52542;SDS011;38449;52.696;6.186;2023-04-25T04:14:36;6.68;;;2.33;;
52542;SDS011;38449;52.696;6.186;2023-04-25T04:17:02;7.78;;;2.25;;
52542;SDS011;38449;52.696;6.186;2023-04-25T04:19:28;9.43;;;2.45;;
52542;SDS011;38449;52.696;6.186;2023-04-25T04:21:54;9.18;;;2.47;;
52542;SDS011;38449;52.696;6.186;2023-04-25T04:24:21;6.32;;;1.92;;
52542;SDS011;38449;52.696;6.186;2023-04-25T04:26:47;7.65;;;2.25;;
52542;SDS011;38449;52.696;6.186;2023-04-25T04:29:13;8.80;;;2.80;;
52542;SDS011;38449;52.696;6.186;2023-04-25T04:31:47;4.97;;;2.47;;
52542;SDS011;38449;52.696;6.186;2023-04-25T04:34:18;12.88;;;2.55;;
52542;SDS011;38449;52.696;6.186;2023-04-25T04:36:44;10.20;;;2.40;;
52542;SDS011;38449;52.696;6.186;2023-04-25T04:39:14;9.43;;;2.67;;
52542;SDS011;38449;52.696;6.186;2023-04-25T04:41:40;7.05;;;3.13;;
52542;SDS011;38449;52.696;6.186;2023-04-25T04:44:06;9.45;;;2.80;;
52542;SDS011;38449;52.696;6.186;2023-04-25T04:46:34;9.73;;;2.50;;
52542;SDS011;38449;52.696;6.186;2023-04-25T04:49:10;7.22;;;2.55;;
52542;SDS011;38449;52.696;6.186;2023-04-25T04:51:39;9.63;;;2.38;;
52542;SDS011;38449;52.696;6.186;2023-04-25T04:54:10;5.47;;;2.33;;
52542;SDS011;38449;52.696;6.186;2023-04-25T04:56:36;10.32;;;3.00;;
52542;SDS011;38449;52.696;6.186;2023-04-25T04:59:03;5.47;;;2.42;;
52542;SDS011;38449;52.696;6.186;2023-04-25T05:01:29;5.53;;;2.40;;
52542;SDS011;38449;52.696;6.186;2023-04-25T05:03:56;7.65;;;2.40;;
52542;SDS011;38449;52.696;6.186;2023-04-25T05:06:26;5.70;;;2.20;;
52542;SDS011;38449;52.696;6.186;2023-04-25T05:08:55;8.32;;;2.20;;
52542;SDS011;38449;52.696;6.186;2023-04-25T05:11:22;9.55;;;2.60;;
52542;SDS011;38449;52.696;6.186;2023-04-25T05:13:52;8.05;;;2.92;;
52542;SDS011;38449;52.696;6.186;2023-04-25T05:16:19;4.07;;;2.40;;
52542;SDS011;38449;52.696;6.186;2023-04-25T05:18:46;5.13;;;2.17;;
52542;SDS011;38449;52.696;6.186;2023-04-25T05:21:12;6.38;;;2.17;;
52542;SDS011;38449;52.696;6.186;2023-04-25T05:23:39;5.57;;;2.47;;
52542;SDS011;38449;52.696;6.186;2023-04-25T05:26:05;5.00;;;2.00;;
52542;SDS011;38449;52.696;6.186;2023-04-25T05:28:31;6.53;;;1.80;;
52542;SDS011;38449;52.696;6.186;2023-04-25T05:30:57;7.35;;;2.00;;
52542;SDS011;38449;52.696;6.186;2023-04-25T05:33:24;8.98;;;2.25;;
52542;SDS011;38449;52.696;6.186;2023-04-25T05:35:50;8.18;;;2.70;;
52542;SDS011;38449;52.696;6.186;2023-04-25T05:38:16;7.20;;;2.38;;
52542;SDS011;38449;52.696;6.186;2023-04-25T05:40:42;9.05;;;2.92;;
52542;SDS011;38449;52.696;6.186;2023-04-25T05:43:09;6.63;;;2.30;;
52542;SDS011;38449;52.696;6.186;2023-04-25T05:45:35;8.25;;;2.30;;
52542;SDS011;38449;52.696;6.186;2023-04-25T05:48:02;9.30;;;3.53;;
52542;SDS011;38449;52.696;6.186;2023-04-25T05:50:28;9.60;;;2.17;;
52542;SDS011;38449;52.696;6.186;2023-04-25T05:52:54;8.25;;;2.50;;
52542;SDS011;38449;52.696;6.186;2023-04-25T05:55:21;8.25;;;2.40;;
52542;SDS011;38449;52.696;6.186;2023-04-25T05:57:47;9.13;;;2.97;;
52542;SDS011;38449;52.696;6.186;2023-04-25T06:00:13;5.45;;;1.70;;
52542;SDS011;38449;52.696;6.186;2023-04-25T06:02:41;6.35;;;1.98;;
52542;SDS011;38449;52.696;6.186;2023-04-25T06:05:08;7.75;;;2.05;;
52542;SDS011;38449;52.696;6.186;2023-04-25T06:07:34;4.68;;;2.08;;
52542;SDS011;38449;52.696;6.186;2023-04-25T06:10:01;8.52;;;2.40;;
52542;SDS011;38449;52.696;6.186;2023-04-25T06:12:27;9.95;;;2.78;;
52542;SDS011;38449;52.696;6.186;2023-04-25T06:14:53;8.18;;;3.15;;
52542;SDS011;38449;52.696;6.186;2023-04-25T06:17:20;10.23;;;2.88;;
52542;SDS011;38449;52.696;6.186;2023-04-25T06:19:46;12.82;;;3.22;;
52542;SDS011;38449;52.696;6.186;2023-04-25T06:22:12;6.35;;;2.00;;
52542;SDS011;38449;52.696;6.186;2023-04-25T06:24:38;8.90;;;2.13;;
52542;SDS011;38449;52.696;6.186;2023-04-25T06:27:11;5.15;;;1.70;;
52542;SDS011;38449;52.696;6.186;2023-04-25T06:29:37;6.38;;;2.15;;
52542;SDS011;38449;52.696;6.186;2023-04-25T06:32:03;7.80;;;2.05;;
52542;SDS011;38449;52.696;6.186;2023-04-25T06:34:30;4.50;;;2.10;;
52542;SDS011;38449;52.696;6.186;2023-04-25T06:36:56;6.13;;;1.80;;
52542;SDS011;38449;52.696;6.186;2023-04-25T06:39:23;5.65;;;1.70;;
52542;SDS011;38449;52.696;6.186;2023-04-25T06:41:50;5.82;;;1.80;;
52542;SDS011;38449;52.696;6.186;2023-04-25T06:44:16;5.53;;;2.05;;
52542;SDS011;38449;52.696;6.186;2023-04-25T06:46:43;5.57;;;1.77;;
52542;SDS011;38449;52.696;6.186;2023-04-25T06:49:09;4.78;;;1.60;;
52542;SDS011;38449;52.696;6.186;2023-04-25T06:51:35;7.95;;;2.35;;
52542;SDS011;38449;52.696;6.186;2023-04-25T06:54:01;10.15;;;2.42;;
52542;SDS011;38449;52.696;6.186;2023-04-25T06:56:29;6.40;;;2.13;;
52542;SDS011;38449;52.696;6.186;2023-04-25T06:58:56;8.57;;;2.40;;
52542;SDS011;38449;52.696;6.186;2023-04-25T07:01:22;8.38;;;2.42;;
52542;SDS011;38449;52.696;6.186;2023-04-25T07:03:49;9.27;;;2.35;;
52542;SDS011;38449;52.696;6.186;2023-04-25T07:06:15;8.68;;;2.35;;
52542;SDS011;38449;52.696;6.186;2023-04-25T07:08:41;6.47;;;2.80;;
52542;SDS011;38449;52.696;6.186;2023-04-25T07:11:08;8.18;;;2.35;;
52542;SDS011;38449;52.696;6.186;2023-04-25T07:13:34;9.50;;;2.72;;
52542;SDS011;38449;52.696;6.186;2023-04-25T07:16:00;11.10;;;2.67;;
52542;SDS011;38449;52.696;6.186;2023-04-25T07:18:27;9.80;;;3.08;;
52542;SDS011;38449;52.696;6.186;2023-04-25T07:20:53;10.63;;;3.90;;
52542;SDS011;38449;52.696;6.186;2023-04-25T07:23:19;9.68;;;2.28;;
52542;SDS011;38449;52.696;6.186;2023-04-25T07:25:46;10.75;;;3.10;;
52542;SDS011;38449;52.696;6.186;2023-04-25T07:28:12;10.70;;;3.20;;
52542;SDS011;38449;52.696;6.186;2023-04-25T07:30:38;10.68;;;3.53;;
52542;SDS011;38449;52.696;6.186;2023-04-25T07:33:05;7.13;;;2.05;;
52542;SDS011;38449;52.696;6.186;2023-04-25T07:35:31;9.90;;;2.55;;
52542;SDS011;38449;52.696;6.186;2023-04-25T07:37:57;8.20;;;2.28;;
52542;SDS011;38449;52.696;6.186;2023-04-25T07:40:24;7.07;;;1.90;;
52542;SDS011;38449;52.696;6.186;2023-04-25T07:42:50;7.68;;;2.30;;
52542;SDS011;38449;52.696;6.186;2023-04-25T07:45:17;6.85;;;2.35;;
52542;SDS011;38449;52.696;6.186;2023-04-25T07:47:43;10.73;;;2.30;;
52542;SDS011;38449;52.696;6.186;2023-04-25T07:50:10;6.45;;;2.50;;
52542;SDS011;38449;52.696;6.186;2023-04-25T07:52:37;7.35;;;1.85;;
52542;SDS011;38449;52.696;6.186;2023-04-25T07:55:03;10.57;;;1.75;;
52542;SDS011;38449;52.696;6.186;2023-04-25T07:57:39;5.18;;;1.45;;
52542;SDS011;38449;52.696;6.186;2023-04-25T08:00:06;7.05;;;1.83;;
52542;SDS011;38449;52.696;6.186;2023-04-25T08:02:35;6.63;;;2.33;;
52542;SDS011;38449;52.696;6.186;2023-04-25T08:05:02;8.40;;;2.15;;
52542;SDS011;38449;52.696;6.186;2023-04-25T08:07:28;6.38;;;1.88;;
52542;SDS011;38449;52.696;6.186;2023-04-25T08:09:54;6.10;;;2.10;;
52542;SDS011;38449;52.696;6.186;2023-04-25T08:12:21;6.35;;;1.92;;
52542;SDS011;38449;52.696;6.186;2023-04-25T08:14:47;5.60;;;2.03;;
52542;SDS011;38449;52.696;6.186;2023-04-25T08:17:13;3.80;;;1.25;;
52542;SDS011;38449;52.696;6.186;2023-04-25T08:19:39;5.70;;;1.50;;
52542;SDS011;38449;52.696;6.186;2023-04-25T08:22:06;4.30;;;1.48;;
52542;SDS011;38449;52.696;6.186;2023-04-25T08:24:32;3.53;;;1.35;;
52542;SDS011;38449;52.696;6.186;2023-04-25T08:26:58;5.43;;;1.50;;
52542;SDS011;38449;52.696;6.186;2023-04-25T08:29:24;8.13;;;1.60;;
52542;SDS011;38449;52.696;6.186;2023-04-25T08:31:51;5.32;;;2.08;;
52542;SDS011;38449;52.696;6.186;2023-04-25T08:34:18;6.20;;;1.60;;
52542;SDS011;38449;52.696;6.186;2023-04-25T08:36:45;5.53;;;1.65;;
52542;SDS011;38449;52.696;6.186;2023-04-25T08:39:12;4.90;;;1.48;;
52542;SDS011;38449;52.696;6.186;2023-04-25T08:41:39;6.88;;;2.17;;
52542;SDS011;38449;52.696;6.186;2023-04-25T08:44:06;5.28;;;1.60;;
52542;SDS011;38449;52.696;6.186;2023-04-25T08:46:35;5.57;;;1.70;;
52542;SDS011;38449;52.696;6.186;2023-04-25T08:49:04;5.88;;;1.90;;
52542;SDS011;38449;52.696;6.186;2023-04-25T08:51:31;3.63;;;1.67;;
52542;SDS011;38449;52.696;6.186;2023-04-25T08:54:08;8.98;;;2.47;;
52542;SDS011;38449;52.696;6.186;2023-04-25T08:59:03;4.72;;;2.05;;
52542;SDS011;38449;52.696;6.186;2023-04-25T09:01:36;6.20;;;1.95;;
52542;SDS011;38449;52.696;6.186;2023-04-25T09:04:02;6.40;;;1.60;;
52542;SDS011;38449;52.696;6.186;2023-04-25T09:06:29;5.35;;;1.52;;
52542;SDS011;38449;52.696;6.186;2023-04-25T09:09:03;6.13;;;1.95;;
52542;SDS011;38449;52.696;6.186;2023-04-25T09:11:31;4.85;;;1.85;;
52542;SDS011;38449;52.696;6.186;2023-04-25T09:16:56;6.22;;;1.85;;
52542;SDS011;38449;52.696;6.186;2023-04-25T09:19:23;5.47;;;1.70;;
52542;SDS011;38449;52.696;6.186;2023-04-25T09:21:57;8.77;;;2.30;;
52542;SDS011;38449;52.696;6.186;2023-04-25T09:24:35;6.22;;;2.35;;
52542;SDS011;38449;52.696;6.186;2023-04-25T09:27:03;10.90;;;2.30;;
52542;SDS011;38449;52.696;6.186;2023-04-25T09:29:31;5.07;;;1.70;;
52542;SDS011;38449;52.696;6.186;2023-04-25T09:34:48;7.00;;;2.08;;
52542;SDS011;38449;52.696;6.186;2023-04-25T09:37:23;6.93;;;2.10;;
52542;SDS011;38449;52.696;6.186;2023-04-25T09:39:59;10.60;;;2.58;;
52542;SDS011;38449;52.696;6.186;2023-04-25T09:42:31;5.15;;;1.67;;
52542;SDS011;38449;52.696;6.186;2023-04-25T09:45:00;5.68;;;1.33;;
52542;SDS011;38449;52.696;6.186;2023-04-25T09:47:27;7.88;;;2.42;;
52542;SDS011;38449;52.696;6.186;2023-04-25T09:49:54;5.70;;;1.55;;
52542;SDS011;38449;52.696;6.186;2023-04-25T09:52:22;5.35;;;1.60;;
52542;SDS011;38449;52.696;6.186;2023-04-25T09:54:49;6.13;;;2.20;;
52542;SDS011;38449;52.696;6.186;2023-04-25T09:57:17;4.78;;;1.42;;
52542;SDS011;38449;52.696;6.186;2023-04-25T09:59:49;5.07;;;1.95;;
52542;SDS011;38449;52.696;6.186;2023-04-25T10:02:18;6.97;;;1.80;;
52542;SDS011;38449;52.696;6.186;2023-04-25T10:04:52;6.22;;;1.88;;
52542;SDS011;38449;52.696;6.186;2023-04-25T10:07:22;8.05;;;2.40;;
52542;SDS011;38449;52.696;6.186;2023-04-25T10:09:54;6.35;;;2.40;;
52542;SDS011;38449;52.696;6.186;2023-04-25T10:12:26;4.72;;;2.15;;
52542;SDS011;38449;52.696;6.186;2023-04-25T10:14:52;7.45;;;2.88;;
52542;SDS011;38449;52.696;6.186;2023-04-25T10:17:20;7.00;;;2.00;;
52542;SDS011;38449;52.696;6.186;2023-04-25T10:19:47;5.80;;;2.00;;
52542;SDS011;38449;52.696;6.186;2023-04-25T10:24:44;7.60;;;1.90;;
52542;SDS011;38449;52.696;6.186;2023-04-25T10:27:12;8.50;;;2.17;;
52542;SDS011;38449;52.696;6.186;2023-04-25T10:29:38;7.93;;;2.38;;
52542;SDS011;38449;52.696;6.186;2023-04-25T10:32:07;4.03;;;1.75;;
52542;SDS011;38449;52.696;6.186;2023-04-25T10:34:40;4.10;;;1.60;;
52542;SDS011;38449;52.696;6.186;2023-04-25T10:37:13;4.93;;;1.73;;
52542;SDS011;38449;52.696;6.186;2023-04-25T10:39:40;6.10;;;2.55;;
52542;SDS011;38449;52.696;6.186;2023-04-25T10:42:09;3.95;;;2.00;;
52542;SDS011;38449;52.696;6.186;2023-04-25T10:44:47;3.78;;;1.80;;
52542;SDS011;38449;52.696;6.186;2023-04-25T10:47:36;4.70;;;1.85;;
52542;SDS011;38449;52.696;6.186;2023-04-25T10:50:08;6.45;;;2.15;;
52542;SDS011;38449;52.696;6.186;2023-04-25T10:52:35;9.13;;;2.40;;
52542;SDS011;38449;52.696;6.186;2023-04-25T10:55:04;4.97;;;2.33;;
52542;SDS011;38449;52.696;6.186;2023-04-25T10:57:41;9.40;;;2.55;;
52542;SDS011;38449;52.696;6.186;2023-04-25T11:00:13;6.80;;;2.22;;
52542;SDS011;38449;52.696;6.186;2023-04-25T11:05:09;10.40;;;4.00;;
52542;SDS011;38449;52.696;6.186;2023-04-25T11:10:26;6.78;;;2.05;;
52542;SDS011;38449;52.696;6.186;2023-04-25T11:12:53;6.80;;;2.15;;
52542;SDS011;38449;52.696;6.186;2023-04-25T11:15:20;7.13;;;2.78;;
52542;SDS011;38449;52.696;6.186;2023-04-25T11:17:46;7.10;;;2.28;;
52542;SDS011;38449;52.696;6.186;2023-04-25T11:20:12;7.35;;;2.42;;
52542;SDS011;38449;52.696;6.186;2023-04-25T11:22:41;6.50;;;1.85;;
52542;SDS011;38449;52.696;6.186;2023-04-25T11:25:11;8.65;;;1.83;;
52542;SDS011;38449;52.696;6.186;2023-04-25T11:28:00;5.07;;;1.63;;
52542;SDS011;38449;52.696;6.186;2023-04-25T11:30:26;4.25;;;1.88;;
52542;SDS011;38449;52.696;6.186;2023-04-25T11:33:02;5.93;;;2.33;;
52542;SDS011;38449;52.696;6.186;2023-04-25T11:35:29;7.47;;;1.83;;
52542;SDS011;38449;52.696;6.186;2023-04-25T11:37:55;5.88;;;1.95;;
52542;SDS011;38449;52.696;6.186;2023-04-25T11:40:21;6.93;;;1.90;;
52542;SDS011;38449;52.696;6.186;2023-04-25T11:42:47;5.20;;;1.60;;
52542;SDS011;38449;52.696;6.186;2023-04-25T11:45:14;4.82;;;1.60;;
52542;SDS011;38449;52.696;6.186;2023-04-25T11:47:40;6.18;;;1.98;;
52542;SDS011;38449;52.696;6.186;2023-04-25T11:50:07;5.15;;;2.17;;
52542;SDS011;38449;52.696;6.186;2023-04-25T11:52:43;5.45;;;1.80;;
52542;SDS011;38449;52.696;6.186;2023-04-25T11:55:15;4.68;;;2.05;;
52542;SDS011;38449;52.696;6.186;2023-04-25T11:57:47;7.45;;;2.20;;
52542;SDS011;38449;52.696;6.186;2023-04-25T12:00:24;7.05;;;2.72;;
52542;SDS011;38449;52.696;6.186;2023-04-25T12:02:51;4.10;;;1.80;;
52542;SDS011;38449;52.696;6.186;2023-04-25T12:05:25;4.00;;;1.90;;
52542;SDS011;38449;52.696;6.186;2023-04-25T12:07:53;4.88;;;1.88;;
52542;SDS011;38449;52.696;6.186;2023-04-25T12:10:19;4.82;;;1.60;;
52542;SDS011;38449;52.696;6.186;2023-04-25T12:12:46;7.10;;;1.60;;
52542;SDS011;38449;52.696;6.186;2023-04-25T12:15:14;6.97;;;1.95;;
52542;SDS011;38449;52.696;6.186;2023-04-25T12:17:42;4.63;;;1.95;;
52542;SDS011;38449;52.696;6.186;2023-04-25T12:20:17;5.22;;;1.77;;
52542;SDS011;38449;52.696;6.186;2023-04-25T12:22:46;5.38;;;2.13;;
52542;SDS011;38449;52.696;6.186;2023-04-25T12:25:14;9.05;;;2.97;;
52542;SDS011;38449;52.696;6.186;2023-04-25T12:28:17;4.80;;;1.90;;
52542;SDS011;38449;52.696;6.186;2023-04-25T12:31:01;3.08;;;1.52;;
52542;SDS011;38449;52.696;6.186;2023-04-25T12:33:29;6.75;;;1.67;;
52542;SDS011;38449;52.696;6.186;2023-04-25T12:35:57;4.70;;;1.98;;
52542;SDS011;38449;52.696;6.186;2023-04-25T12:38:25;4.00;;;1.60;;
52542;SDS011;38449;52.696;6.186;2023-04-25T12:40:54;3.65;;;1.42;;
52542;SDS011;38449;52.696;6.186;2023-04-25T12:43:21;5.72;;;1.58;;
52542;SDS011;38449;52.696;6.186;2023-04-25T12:45:48;5.07;;;1.88;;
52542;SDS011;38449;52.696;6.186;2023-04-25T12:48:16;5.78;;;1.63;;
52542;SDS011;38449;52.696;6.186;2023-04-25T12:50:43;4.57;;;2.22;;
52542;SDS011;38449;52.696;6.186;2023-04-25T12:53:09;5.88;;;2.35;;
52542;SDS011;38449;52.696;6.186;2023-04-25T12:55:37;9.05;;;3.35;;
52542;SDS011;38449;52.696;6.186;2023-04-25T12:58:03;9.73;;;3.47;;
52542;SDS011;38449;52.696;6.186;2023-04-25T13:00:30;7.18;;;3.28;;
52542;SDS011;38449;52.696;6.186;2023-04-25T13:02:57;6.15;;;2.78;;
52542;SDS011;38449;52.696;6.186;2023-04-25T13:05:23;5.45;;;2.10;;
52542;SDS011;38449;52.696;6.186;2023-04-25T13:07:49;5.15;;;2.40;;
52542;SDS011;38449;52.696;6.186;2023-04-25T13:10:15;7.40;;;2.13;;
52542;SDS011;38449;52.696;6.186;2023-04-25T13:12:43;4.70;;;1.70;;
52542;SDS011;38449;52.696;6.186;2023-04-25T13:15:10;4.05;;;1.30;;
52542;SDS011;38449;52.696;6.186;2023-04-25T13:17:37;6.75;;;1.80;;
52542;SDS011;38449;52.696;6.186;2023-04-25T13:20:07;4.22;;;1.40;;
52542;SDS011;38449;52.696;6.186;2023-04-25T13:22:35;4.88;;;1.80;;
52542;SDS011;38449;52.696;6.186;2023-04-25T13:25:03;3.75;;;1.67;;
52542;SDS011;38449;52.696;6.186;2023-04-25T13:27:31;6.55;;;2.05;;
52542;SDS011;38449;52.696;6.186;2023-04-25T13:29:59;5.53;;;1.63;;
52542;SDS011;38449;52.696;6.186;2023-04-25T13:32:27;8.82;;;2.10;;
52542;SDS011;38449;52.696;6.186;2023-04-25T13:34:53;8.10;;;2.38;;
52542;SDS011;38449;52.696;6.186;2023-04-25T13:37:19;6.10;;;2.60;;
52542;SDS011;38449;52.696;6.186;2023-04-25T13:39:46;8.20;;;2.13;;
52542;SDS011;38449;52.696;6.186;2023-04-25T13:42:12;3.85;;;1.90;;
52542;SDS011;38449;52.696;6.186;2023-04-25T13:44:38;4.00;;;1.80;;
52542;SDS011;38449;52.696;6.186;2023-04-25T13:47:05;4.70;;;1.70;;
52542;SDS011;38449;52.696;6.186;2023-04-25T13:49:31;5.32;;;1.73;;
52542;SDS011;38449;52.696;6.186;2023-04-25T13:51:57;5.30;;;1.95;;
52542;SDS011;38449;52.696;6.186;2023-04-25T13:54:23;3.15;;;1.70;;
52542;SDS011;38449;52.696;6.186;2023-04-25T13:56:50;3.38;;;1.65;;
52542;SDS011;38449;52.696;6.186;2023-04-25T13:59:17;4.05;;;1.83;;
52542;SDS011;38449;52.696;6.186;2023-04-25T14:01:43;4.20;;;1.52;;
52542;SDS011;38449;52.696;6.186;2023-04-25T14:04:10;4.43;;;1.70;;
52542;SDS011;38449;52.696;6.186;2023-04-25T14:06:36;5.32;;;2.00;;
52542;SDS011;38449;52.696;6.186;2023-04-25T14:09:03;8.77;;;2.22;;
52542;SDS011;38449;52.696;6.186;2023-04-25T14:11:32;3.03;;;2.03;;
52542;SDS011;38449;52.696;6.186;2023-04-25T14:13:58;4.32;;;1.73;;
52542;SDS011;38449;52.696;6.186;2023-04-25T14:16:24;4.00;;;1.75;;
52542;SDS011;38449;52.696;6.186;2023-04-25T14:18:51;4.00;;;1.50;;
52542;SDS011;38449;52.696;6.186;2023-04-25T14:21:17;4.55;;;2.08;;
52542;SDS011;38449;52.696;6.186;2023-04-25T14:23:43;4.30;;;1.60;;
52542;SDS011;38449;52.696;6.186;2023-04-25T14:26:09;6.57;;;1.90;;
52542;SDS011;38449;52.696;6.186;2023-04-25T14:28:38;3.78;;;1.60;;
52542;SDS011;38449;52.696;6.186;2023-04-25T14:31:04;4.65;;;1.48;;
52542;SDS011;38449;52.696;6.186;2023-04-25T14:33:30;6.38;;;1.50;;
52542;SDS011;38449;52.696;6.186;2023-04-25T14:35:57;3.72;;;1.75;;
52542;SDS011;38449;52.696;6.186;2023-04-25T14:38:26;3.50;;;1.67;;
52542;SDS011;38449;52.696;6.186;2023-04-25T14:40:52;3.95;;;1.50;;
52542;SDS011;38449;52.696;6.186;2023-04-25T14:43:19;8.05;;;1.95;;
52542;SDS011;38449;52.696;6.186;2023-04-25T14:45:45;4.18;;;1.77;;
52542;SDS011;38449;52.696;6.186;2023-04-25T14:48:12;6.53;;;2.42;;
52542;SDS011;38449;52.696;6.186;2023-04-25T14:50:38;8.57;;;2.85;;
52542;SDS011;38449;52.696;6.186;2023-04-25T14:53:04;7.60;;;2.80;;
52542;SDS011;38449;52.696;6.186;2023-04-25T14:55:31;7.22;;;2.38;;
52542;SDS011;38449;52.696;6.186;2023-04-25T14:57:57;5.32;;;2.20;;
52542;SDS011;38449;52.696;6.186;2023-04-25T15:00:23;7.15;;;2.50;;
52542;SDS011;38449;52.696;6.186;2023-04-25T15:02:50;5.22;;;1.80;;